M I D A S
Marine Information and Data Acquisition System
Tripno 1229 of the Zeeleeuw from 2007-03-12 08:05:23 to 2007-03-12 13:45:51
Back to CruiseResearch ActivitiesStationsMapUnderway DataData graphs

EquipmentUnitsComments
TimeDGPSUTC
LatitudeDGPSDM.mWGS84
LongitudeDGPSDM.mWGS84
SpeedMeteo Stationm/sRelative wind speed
DirectionMeteo StationdegRelative wind direction
TemperatureMeteo Stationdeg CelciusAir temperature
PressureMeteo StationPaAtmospheric pressure
HumidityMeteo Station%Relative humidity
Missing or incorrect values are displayed as -999
Metereological data collected by the RV Zeeleeuw from 2007-03-12 07:47:02 to 2007-03-12 13:55:59
Time Latitude Longitude Speed Direction Temperature Pressure Humidity
2007-03-12 07:48 51°13.597 2°56.096 1.4 287 6.5 102590 89
2007-03-12 07:49 51°13.597 2°56.095 5.6 358 6.5 102590 89
2007-03-12 07:50 51°13.6 2°56.085 2.6 358 6.5 102590 89
2007-03-12 07:51 51°13.617 2°56.016 3 41 6.6 102590 89
2007-03-12 07:52 51°13.64 2°55.929 2.3 14 6.6 102590 88
2007-03-12 07:53 51°13.664 2°55.845 2.1 76 6.7 102590 88
2007-03-12 07:54 51°13.675 2°55.766 3.8 79 6.7 102590 88
2007-03-12 07:55 51°13.685 2°55.762 3.4 20 6.8 102590 88
2007-03-12 07:56 51°13.709 2°55.763 4.3 50 6.8 102590 87
2007-03-12 07:57 51°13.722 2°55.742 1.9 306 6.8 102590 87
2007-03-12 07:58 51°13.792 2°55.674 2 306 6.9 102590 87
2007-03-12 07:59 51°13.893 2°55.59 1.9 308 7 102580 87
2007-03-12 08:00 51°14.004 2°55.509 0.6 329 7.1 102580 87
2007-03-12 08:01 51°14.115 2°55.427 0.9 311 7.2 102580 86
2007-03-12 08:02 51°14.221 2°55.323 2.6 310 7.4 102580 87
2007-03-12 08:03 51°14.327 2°55.141 4 308 7.5 102570 86
2007-03-12 08:04 51°14.425 2°54.89 5.5 303 7.6 102570 85
2007-03-12 08:05 51°14.442 2°54.558 9.7 302 7.6 102560 84
2007-03-12 08:06 51°14.352 2°54.231 11 305 7.6 102530 83
2007-03-12 08:07 51°14.241 2°53.923 10.1 305 7.4 102530 83
2007-03-12 08:08 51°14.129 2°53.604 10.7 305 7.3 102530 83
2007-03-12 08:09 51°14.02 2°53.292 11.3 302 7.2 102530 84
2007-03-12 08:10 51°13.909 2°52.968 10.6 304 7.1 102540 84
2007-03-12 08:11 51°13.798 2°52.65 9.8 309 7.1 102540 85
2007-03-12 08:12 51°13.688 2°52.33 10.7 303 7.1 102540 86
2007-03-12 08:13 51°13.578 2°52.01 10.4 309 7.1 102550 87
2007-03-12 08:14 51°13.47 2°51.689 10.4 309 7.1 102540 87
2007-03-12 08:15 51°13.361 2°51.371 10.4 304 7.2 102550 87
2007-03-12 08:16 51°13.252 2°51.051 10.9 308 7.2 102540 88
2007-03-12 08:17 51°13.144 2°50.73 9.6 305 7.2 102540 87
2007-03-12 08:18 51°13.038 2°50.412 10.8 301 7.1 102550 88
2007-03-12 08:19 51°12.929 2°50.084 10.9 303 7.1 102540 88
2007-03-12 08:20 51°12.823 2°49.769 9.9 303 7.1 102540 88
2007-03-12 08:21 51°12.712 2°49.448 10.1 306 7.1 102540 88
2007-03-12 08:22 51°12.599 2°49.122 11 305 7.2 102540 89
2007-03-12 08:23 51°12.488 2°48.8 10.3 308 7.3 102540 89
2007-03-12 08:24 51°12.376 2°48.478 10.4 305 7.3 102530 88
2007-03-12 08:25 51°12.266 2°48.162 10.8 307 7.3 102530 88
2007-03-12 08:26 51°12.153 2°47.834 10.1 306 7.4 102540 88
2007-03-12 08:27 51°12.042 2°47.511 11.2 303 7.4 102530 88
2007-03-12 08:28 51°11.94 2°47.181 10.8 309 7.4 102530 88
2007-03-12 08:29 51°11.868 2°46.836 11.2 304 7.4 102540 88
2007-03-12 08:30 51°11.797 2°46.477 10.4 306 7.4 102550 88
2007-03-12 08:31 51°11.719 2°46.131 10.5 304 7.5 102540 88
2007-03-12 08:32 51°11.641 2°45.791 10 309 7.5 102540 88
2007-03-12 08:33 51°11.561 2°45.439 10.2 302 7.6 102550 87
2007-03-12 08:34 51°11.487 2°45.095 10.3 306 7.6 102560 88
2007-03-12 08:35 51°11.419 2°44.741 9.6 307 7.7 102560 87
2007-03-12 08:36 51°11.352 2°44.386 9.8 307 7.8 102550 86
2007-03-12 08:37 51°11.283 2°44.032 10.6 304 7.7 102550 86
2007-03-12 08:38 51°11.232 2°43.67 10.7 306 7.7 102560 86
2007-03-12 08:39 51°11.205 2°43.331 9.4 309 7.6 102560 86
2007-03-12 08:40 51°11.179 2°43.055 7.8 302 7.6 102560 87
2007-03-12 08:41 51°11.173 2°42.78 7.2 303 7.7 102570 87
2007-03-12 08:42 51°11.154 2°42.553 6.5 310 7.8 102570 87
2007-03-12 08:43 51°11.132 2°42.391 6.8 306 7.8 102580 87
2007-03-12 08:44 51°11.115 2°42.225 5.9 308 7.9 102580 87
2007-03-12 08:45 51°11.096 2°42.105 6.7 306 8 102580 87
2007-03-12 08:46 51°11.089 2°42.057 5.8 309 8 102590 86
2007-03-12 08:47 51°11.092 2°42.033 6.3 310 8.2 102590 87
2007-03-12 08:48 51°11.096 2°42.01 6.3 304 8.2 102590 86
2007-03-12 08:49 51°11.1 2°41.988 5.7 303 8.2 102590 85
2007-03-12 08:50 51°11.105 2°41.968 5.1 309 8.2 102590 85
2007-03-12 08:51 51°11.11 2°41.95 5.3 305 8.3 102590 84
2007-03-12 08:52 51°11.115 2°41.933 6.2 308 8.3 102590 84
2007-03-12 08:53 51°11.12 2°41.916 6 303 8.3 102590 84
2007-03-12 08:54 51°11.126 2°41.901 5.8 305 8.3 102590 83
2007-03-12 08:55 51°11.118 2°41.834 6.8 309 8.4 102590 84
2007-03-12 08:56 51°11.059 2°41.617 8.4 303 8.5 102570 83
2007-03-12 08:57 51°10.969 2°41.304 10.2 279 8.4 102550 82
2007-03-12 08:58 51°10.897 2°40.959 10 305 8.4 102550 82
2007-03-12 08:59 51°10.839 2°40.605 8.8 304 8.3 102550 83
2007-03-12 09:00 51°10.781 2°40.251 9 305 8.3 102560 83
2007-03-12 09:01 51°10.724 2°39.897 9.8 305 8.4 102560 84
2007-03-12 09:02 51°10.667 2°39.542 10.3 304 8.5 102560 84
2007-03-12 09:03 51°10.611 2°39.188 9.9 304 8.5 102560 83
2007-03-12 09:04 51°10.554 2°38.833 10.3 287 8.6 102560 82
2007-03-12 09:05 51°10.51 2°38.473 9.8 310 8.7 102560 82
2007-03-12 09:06 51°10.469 2°38.112 9.8 305 8.7 102560 81
2007-03-12 09:07 51°10.426 2°37.749 9.8 303 8.7 102560 81
2007-03-12 09:08 51°10.398 2°37.383 9.3 284 8.7 102560 81
2007-03-12 09:09 51°10.398 2°37.017 7.8 309 8.7 102560 81
2007-03-12 09:10 51°10.509 2°36.71 4.8 309 8.7 102570 81
2007-03-12 09:11 51°10.703 2°36.552 2.3 302 8.7 102580 81
2007-03-12 09:12 51°10.921 2°36.623 2.6 343 8.7 102590 81
2007-03-12 09:13 51°11.136 2°36.716 2.1 349 8.7 102590 82
2007-03-12 09:14 51°11.352 2°36.807 2.9 342 8.6 102590 82
2007-03-12 09:15 51°11.568 2°36.902 2.4 348 8.6 102590 82
2007-03-12 09:16 51°11.785 2°36.986 1.8 351 8.6 102590 83
2007-03-12 09:17 51°12.002 2°37.059 1.9 351 8.5 102590 82
2007-03-12 09:18 51°12.221 2°37.124 2.4 347 8.5 102590 83
2007-03-12 09:19 51°12.444 2°37.179 2 342 8.6 102590 83
2007-03-12 09:20 51°12.668 2°37.217 2.1 334 8.6 102590 83
2007-03-12 09:21 51°12.891 2°37.253 2.5 333 8.7 102590 82
2007-03-12 09:22 51°13.113 2°37.27 1.8 333 8.8 102590 83
2007-03-12 09:23 51°13.337 2°37.265 2.5 331 8.9 102590 82
2007-03-12 09:24 51°13.56 2°37.245 2.3 307 8.9 102590 82
2007-03-12 09:25 51°13.794 2°37.182 2.8 306 9 102590 81
2007-03-12 09:26 51°14.022 2°37.126 2.4 309 9.1 102590 81
2007-03-12 09:27 51°14.247 2°37.071 2.2 304 9.1 102590 81
2007-03-12 09:28 51°14.472 2°37.018 2.5 302 9.1 102590 80
2007-03-12 09:29 51°14.697 2°36.97 1.7 305 9.2 102590 80
2007-03-12 09:30 51°14.923 2°36.917 2.2 305 9.2 102590 79
2007-03-12 09:31 51°15.153 2°36.867 2.3 304 9.2 102590 79
2007-03-12 09:32 51°15.377 2°36.798 2 304 9.2 102580 79
2007-03-12 09:33 51°15.601 2°36.731 1.8 302 9.2 102580 79
2007-03-12 09:34 51°15.827 2°36.668 2.4 309 9.3 102580 79
2007-03-12 09:35 51°16.051 2°36.608 1.9 303 9.3 102580 80
2007-03-12 09:36 51°16.248 2°36.55 0.8 309 9.4 102580 80
2007-03-12 09:37 51°16.384 2°36.518 1.7 26 9.5 102590 80
2007-03-12 09:38 51°16.476 2°36.612 3.3 30 9.5 102580 80
2007-03-12 09:39 51°16.566 2°36.719 3.9 20 9.4 102580 80
2007-03-12 09:40 51°16.595 2°36.805 5.6 17 9.3 102580 80
2007-03-12 09:41 51°16.597 2°36.825 5.7 8 9.2 102570 80
2007-03-12 09:42 51°16.595 2°36.837 4.8 7 9.1 102570 80
2007-03-12 09:43 51°16.596 2°36.843 4.5 5 9 102570 81
2007-03-12 09:44 51°16.596 2°36.845 4.6 5 8.9 102580 82
2007-03-12 09:45 51°16.598 2°36.842 4.8 4 8.9 102570 83
2007-03-12 09:46 51°16.6 2°36.837 4.3 6 8.9 102570 83
2007-03-12 09:47 51°16.603 2°36.832 4.6 5 8.9 102580 84
2007-03-12 09:48 51°16.606 2°36.825 3.9 5 8.9 102570 84
2007-03-12 09:49 51°16.613 2°36.818 5.2 12 8.9 102570 84
2007-03-12 09:50 51°16.619 2°36.807 4.8 14 8.9 102570 84
2007-03-12 09:51 51°16.624 2°36.812 4.6 26 9 102570 84
2007-03-12 09:52 51°16.681 2°36.869 1.5 14 9 102580 83
2007-03-12 09:53 51°16.821 2°37.024 4.2 357 9.1 102570 83
2007-03-12 09:54 51°16.993 2°37.241 4.3 353 9 102560 83
2007-03-12 09:55 51°17.171 2°37.457 4.4 355 8.9 102560 83
2007-03-12 09:56 51°17.349 2°37.675 4 351 8.9 102560 83
2007-03-12 09:57 51°17.534 2°37.876 4.2 350 8.9 102560 83
2007-03-12 09:58 51°17.723 2°38.075 4.5 356 8.9 102560 84
2007-03-12 09:59 51°17.913 2°38.266 4.3 354 8.9 102560 83
2007-03-12 10:00 51°18.106 2°38.458 3.7 354 8.9 102560 84
2007-03-12 10:01 51°18.302 2°38.643 3.7 356 8.9 102560 84
2007-03-12 10:02 51°18.508 2°38.801 3.1 349 8.8 102560 83
2007-03-12 10:03 51°18.716 2°38.952 2.7 343 8.9 102560 83
2007-03-12 10:04 51°18.924 2°39.101 3 343 8.9 102560 83
2007-03-12 10:05 51°19.143 2°39.212 3.1 285 9 102570 84
2007-03-12 10:06 51°19.361 2°39.317 2.4 282 9.1 102560 83
2007-03-12 10:07 51°19.579 2°39.422 2.9 339 9.1 102560 83
2007-03-12 10:08 51°19.798 2°39.529 2.2 285 9.2 102560 83
2007-03-12 10:09 51°20.017 2°39.635 1.9 345 9.3 102560 82
2007-03-12 10:10 51°20.237 2°39.743 2.1 342 9.3 102560 82
2007-03-12 10:11 51°20.456 2°39.852 2.8 338 9.3 102560 81
2007-03-12 10:12 51°20.675 2°39.965 2.5 282 9.4 102560 81
2007-03-12 10:13 51°20.893 2°40.074 3 282 9.4 102560 81
2007-03-12 10:14 51°21.114 2°40.184 2.6 337 9.5 102560 81
2007-03-12 10:15 51°21.328 2°40.29 2.8 339 9.5 102560 80
2007-03-12 10:16 51°21.539 2°40.423 3.2 342 9.4 102560 79
2007-03-12 10:17 51°21.746 2°40.565 2.6 345 9.4 102560 79
2007-03-12 10:18 51°21.948 2°40.722 3.8 349 9.3 102560 80
2007-03-12 10:19 51°22.145 2°40.898 4.3 351 9.3 102560 80
2007-03-12 10:20 51°22.333 2°41.094 3.3 358 9.2 102550 81
2007-03-12 10:21 51°22.513 2°41.31 5 358 9.2 102550 81
2007-03-12 10:22 51°22.675 2°41.56 5.5 355 9.2 102540 82
2007-03-12 10:23 51°22.807 2°41.847 6 -999 9.2 102540 82
2007-03-12 10:24 51°22.93 2°42.145 6.7 355 9.1 102540 82
2007-03-12 10:25 51°23.056 2°42.442 6.1 356 9.1 102540 83
2007-03-12 10:26 51°23.182 2°42.736 6.3 356 9.1 102540 84
2007-03-12 10:27 51°23.331 2°43.003 5.7 359 9.1 102540 84
2007-03-12 10:28 51°23.485 2°43.258 5 356 9 102550 84
2007-03-12 10:29 51°23.64 2°43.511 5.5 356 9 102550 85
2007-03-12 10:30 51°23.794 2°43.764 5 356 9.1 102550 85
2007-03-12 10:31 51°23.938 2°44.03 5.7 355 9 102550 85
2007-03-12 10:32 51°24.073 2°44.318 5.4 355 9 102550 85
2007-03-12 10:33 51°24.199 2°44.6 5.3 355 9 102540 85
2007-03-12 10:34 51°24.325 2°44.888 5.3 358 9 102550 85
2007-03-12 10:35 51°24.45 2°45.174 5.4 353 9 102540 86
2007-03-12 10:36 51°24.578 2°45.462 5.2 353 9 102540 86
2007-03-12 10:37 51°24.708 2°45.747 5.4 355 9 102540 86
2007-03-12 10:38 51°24.835 2°46.037 5.3 353 9 102550 86
2007-03-12 10:39 51°24.967 2°46.332 5.7 353 9 102550 86
2007-03-12 10:40 51°25.095 2°46.617 6.3 356 9 102540 86
2007-03-12 10:41 51°25.229 2°46.897 5.5 354 9.1 102540 86
2007-03-12 10:42 51°25.395 2°47.135 5.4 358 9.1 102540 86
2007-03-12 10:43 51°25.562 2°47.37 5.5 356 9.1 102540 86
2007-03-12 10:44 51°25.728 2°47.607 6 358 9.1 102540 86
2007-03-12 10:45 51°25.894 2°47.845 4.8 1 9.1 102540 86
2007-03-12 10:46 51°26.002 2°48.031 6 2 9.1 102550 87
2007-03-12 10:47 51°26.009 2°48.173 4.8 4 9.1 102540 87
2007-03-12 10:48 51°26.012 2°48.269 5.1 12 9.2 102550 87
2007-03-12 10:49 51°26.025 2°48.368 4.3 6 9.3 102550 87
2007-03-12 10:50 51°26.021 2°48.463 4.9 2 9.3 102550 87
2007-03-12 10:51 51°26.012 2°48.501 4.3 360 9.3 102550 87
2007-03-12 10:52 51°26.005 2°48.508 5.1 358 9.3 102560 87
2007-03-12 10:53 51°25.999 2°48.51 4.7 357 9.3 102550 87
2007-03-12 10:54 51°25.993 2°48.51 5.2 358 9.2 102560 87
2007-03-12 10:55 51°25.988 2°48.507 4.7 358 9.3 102550 87
2007-03-12 10:56 51°25.984 2°48.503 4.5 358 9.3 102550 87
2007-03-12 10:57 51°25.98 2°48.498 4.4 355 9.3 102560 87
2007-03-12 10:58 51°25.977 2°48.491 4.7 -999 9.3 102560 87
2007-03-12 10:59 51°25.974 2°48.484 4 1 9.3 102560 87
2007-03-12 11:00 51°25.965 2°48.484 4.8 354 9.3 102550 87
2007-03-12 11:01 51°25.93 2°48.563 5.2 2 9.3 102550 87
2007-03-12 11:02 51°25.896 2°48.78 8.6 348 9.3 102550 87
2007-03-12 11:03 51°25.824 2°49.079 9.8 350 9.3 102540 87
2007-03-12 11:04 51°25.75 2°49.402 9.4 348 9.3 102530 85
2007-03-12 11:05 51°25.668 2°49.72 8.3 346 9.4 102540 85
2007-03-12 11:06 51°25.584 2°50.038 8.9 345 9.4 102540 86
2007-03-12 11:07 51°25.499 2°50.355 8.9 346 9.4 102540 87
2007-03-12 11:08 51°25.413 2°50.671 9.3 348 9.4 102540 87
2007-03-12 11:09 51°25.331 2°50.989 8.8 345 9.4 102540 86
2007-03-12 11:10 51°25.244 2°51.306 9.1 346 9.4 102540 87
2007-03-12 11:11 51°25.164 2°51.627 8.9 349 9.4 102540 87
2007-03-12 11:12 51°25.093 2°51.95 9.1 348 9.5 102540 86
2007-03-12 11:13 51°25.031 2°52.286 8.2 348 9.5 102530 86
2007-03-12 11:14 51°24.975 2°52.614 8.6 348 9.5 102540 86
2007-03-12 11:15 51°24.918 2°52.948 8.7 346 9.5 102530 85
2007-03-12 11:16 51°24.86 2°53.281 8.2 348 9.6 102540 85
2007-03-12 11:17 51°24.816 2°53.617 8.4 346 9.6 102540 85
2007-03-12 11:18 51°24.773 2°53.961 8.5 345 9.6 102540 85
2007-03-12 11:19 51°24.732 2°54.289 8.6 345 9.7 102540 86
2007-03-12 11:20 51°24.685 2°54.626 8.7 348 9.7 102540 85
2007-03-12 11:21 51°24.64 2°54.954 8.5 347 9.7 102540 85
2007-03-12 11:22 51°24.594 2°55.293 9.2 347 9.7 102540 84
2007-03-12 11:23 51°24.55 2°55.62 9.2 348 9.8 102540 84
2007-03-12 11:24 51°24.513 2°55.956 8.7 348 9.8 102540 84
2007-03-12 11:25 51°24.483 2°56.295 8.9 349 9.8 102540 83
2007-03-12 11:26 51°24.453 2°56.63 8.6 348 9.8 102540 83
2007-03-12 11:27 51°24.421 2°56.969 8.4 345 9.9 102540 83
2007-03-12 11:28 51°24.39 2°57.307 8.3 346 9.9 102540 83
2007-03-12 11:29 51°24.358 2°57.652 8.3 346 9.9 102540 83
2007-03-12 11:30 51°24.328 2°57.984 8.1 345 10 102540 82
2007-03-12 11:31 51°24.296 2°58.328 8.2 346 10 102540 81
2007-03-12 11:32 51°24.267 2°58.662 8.2 346 10 102540 81
2007-03-12 11:33 51°24.238 2°59.005 8.3 346 10.1 102540 81
2007-03-12 11:34 51°24.207 2°59.336 8.3 346 10.1 102540 81
2007-03-12 11:35 51°24.178 2°59.676 8.6 345 10.1 102540 81
2007-03-12 11:36 51°24.148 3°0.021 8.6 345 10.2 102540 81
2007-03-12 11:37 51°24.116 3°0.353 8.7 347 10.2 102540 81
2007-03-12 11:38 51°24.087 3°0.696 8.7 345 10.2 102540 80
2007-03-12 11:39 51°24.06 3°1.026 8.5 345 10.3 102540 81
2007-03-12 11:40 51°24.031 3°1.366 8.8 344 10.3 102540 81
2007-03-12 11:41 51°24.002 3°1.693 9.1 344 10.3 102540 80
2007-03-12 11:42 51°23.973 3°2.032 8.8 344 10.3 102550 80
2007-03-12 11:43 51°23.934 3°2.354 9.2 344 10.4 102540 80
2007-03-12 11:44 51°23.892 3°2.682 9 343 10.4 102540 80
2007-03-12 11:45 51°23.85 3°3.008 8.6 345 10.4 102540 78
2007-03-12 11:46 51°23.807 3°3.339 9 343 10.5 102540 77
2007-03-12 11:47 51°23.763 3°3.675 9.1 342 10.6 102540 77
2007-03-12 11:48 51°23.724 3°3.999 8.5 344 10.6 102550 77
2007-03-12 11:49 51°23.68 3°4.33 8.6 345 10.7 102540 76
2007-03-12 11:50 51°23.638 3°4.652 8.4 345 10.7 102540 75
2007-03-12 11:51 51°23.594 3°4.986 8.7 345 10.7 102540 75
2007-03-12 11:52 51°23.553 3°5.307 8.6 346 10.7 102540 74
2007-03-12 11:53 51°23.52 3°5.637 7.5 348 10.7 102540 72
2007-03-12 11:54 51°23.534 3°5.965 7.6 349 10.7 102540 71
2007-03-12 11:55 51°23.547 3°6.289 7.9 346 10.7 102540 72
2007-03-12 11:56 51°23.553 3°6.626 7.3 347 10.6 102540 74
2007-03-12 11:57 51°23.545 3°6.952 7.8 347 10.6 102540 73
2007-03-12 11:58 51°23.524 3°7.288 8 346 10.7 102540 71
2007-03-12 11:59 51°23.495 3°7.611 8.6 345 10.8 102540 70
2007-03-12 12:00 51°23.463 3°7.946 9 345 10.9 102540 70
2007-03-12 12:01 51°23.422 3°8.267 7.9 346 11 102540 68
2007-03-12 12:02 51°23.385 3°8.478 6 352 11.1 102550 66
2007-03-12 12:03 51°23.362 3°8.622 5.4 355 11 102540 67
2007-03-12 12:04 51°23.322 3°8.752 6 347 11 102550 67
2007-03-12 12:05 51°23.25 3°8.892 6.4 344 11.1 102550 67
2007-03-12 12:06 51°23.164 3°9.021 6.7 343 11.2 102540 66
2007-03-12 12:07 51°23.081 3°9.154 6 345 11.4 102540 65
2007-03-12 12:08 51°23.015 3°9.253 5.4 347 11.6 102550 64
2007-03-12 12:09 51°22.955 3°9.34 5.3 345 11.5 102540 65
2007-03-12 12:10 51°22.882 3°9.462 6.9 341 11.5 102540 65
2007-03-12 12:11 51°22.775 3°9.676 8.8 340 11.6 102540 66
2007-03-12 12:12 51°22.728 3°9.992 7.6 341 11.7 102540 65
2007-03-12 12:13 51°22.716 3°10.32 7.7 340 11.7 102540 65
2007-03-12 12:14 51°22.7 3°10.658 6.9 342 11.8 102540 64
2007-03-12 12:15 51°22.686 3°10.985 6.5 345 11.9 102540 62
2007-03-12 12:16 51°22.669 3°11.324 6 343 12 102540 61
2007-03-12 12:17 51°22.653 3°11.658 5.6 342 12.1 102540 60
2007-03-12 12:18 51°22.643 3°11.987 5.6 339 12.2 102540 63
2007-03-12 12:19 51°22.63 3°12.328 6.3 337 12.2 102540 63
2007-03-12 12:20 51°22.619 3°12.597 4 338 12.2 102540 64
2007-03-12 12:21 51°22.609 3°12.806 3.4 336 12.3 102540 64
2007-03-12 12:22 51°22.6 3°12.995 3.6 339 12.3 102540 63
2007-03-12 12:23 51°22.592 3°13.164 2.2 339 12.2 102540 67
2007-03-12 12:24 51°22.596 3°13.227 0.6 49 12.3 102540 64
2007-03-12 12:25 51°22.606 3°13.234 0.8 56 12.4 102540 63
2007-03-12 12:26 51°22.617 3°13.231 1.1 59 12.7 102540 62
2007-03-12 12:27 51°22.626 3°13.224 1.5 57 12.9 102540 60
2007-03-12 12:28 51°22.634 3°13.214 1.1 58 13.1 102530 59
2007-03-12 12:29 51°22.64 3°13.203 0.9 55 13.4 102530 59
2007-03-12 12:30 51°22.648 3°13.19 1.4 52 13.6 102530 58
2007-03-12 12:31 51°22.654 3°13.176 1.4 52 13.7 102530 59
2007-03-12 12:32 51°22.66 3°13.161 1.3 42 13.6 102520 56
2007-03-12 12:33 51°22.692 3°13.123 1.6 300 13.5 102520 57
2007-03-12 12:34 51°22.708 3°12.942 5 304 13.6 102510 56
2007-03-12 12:35 51°22.69 3°12.605 8 325 13.4 102500 57
2007-03-12 12:36 51°22.623 3°12.236 8.2 327 13.1 102510 57
2007-03-12 12:37 51°22.566 3°11.858 8.2 329 13 102500 56
2007-03-12 12:38 51°22.53 3°11.471 9 325 12.9 102500 59
2007-03-12 12:39 51°22.488 3°11.087 9 327 12.8 102500 59
2007-03-12 12:40 51°22.417 3°10.715 9.2 330 12.6 102500 58
2007-03-12 12:41 51°22.32 3°10.361 9.1 329 12.5 102500 57
2007-03-12 12:42 51°22.218 3°10.009 8.7 329 12.5 102490 57
2007-03-12 12:43 51°22.116 3°9.653 9 329 12.6 102500 57
2007-03-12 12:44 51°22.015 3°9.294 8.4 329 12.6 102500 59
2007-03-12 12:45 51°21.926 3°8.928 8.1 328 12.4 102490 60
2007-03-12 12:46 51°21.839 3°8.561 8 302 12.3 102490 59
2007-03-12 12:47 51°21.73 3°8.21 8 329 12.3 102490 58
2007-03-12 12:48 51°21.621 3°7.859 7.5 327 12.3 102490 59
2007-03-12 12:49 51°21.515 3°7.507 7.6 301 12.3 102490 58
2007-03-12 12:50 51°21.431 3°7.143 7.8 328 12.2 102490 59
2007-03-12 12:51 51°21.343 3°6.781 7.5 328 12.2 102490 58
2007-03-12 12:52 51°21.256 3°6.419 7.4 328 12.3 102490 57
2007-03-12 12:53 51°21.175 3°6.056 7.5 330 12.4 102500 57
2007-03-12 12:54 51°21.083 3°5.7 7.6 331 12.2 102500 60
2007-03-12 12:55 51°21.006 3°5.337 8 332 12 102490 62
2007-03-12 12:56 51°20.912 3°4.987 7.4 331 11.8 102490 62
2007-03-12 12:57 51°20.821 3°4.64 7.3 332 11.7 102490 64
2007-03-12 12:58 51°20.744 3°4.285 7.2 331 11.7 102490 63
2007-03-12 12:59 51°20.665 3°3.93 7.7 331 11.5 102490 65
2007-03-12 13:00 51°20.568 3°3.584 7.4 330 11.6 102480 62
2007-03-12 13:01 51°20.491 3°3.234 7.3 330 11.7 102480 62
2007-03-12 13:02 51°20.437 3°2.862 7.1 331 11.7 102480 63
2007-03-12 13:03 51°20.356 3°2.515 6.9 336 11.7 102480 62
2007-03-12 13:04 51°20.294 3°2.146 7.1 334 11.7 102480 64
2007-03-12 13:05 51°20.215 3°1.791 6.9 334 11.7 102480 64
2007-03-12 13:06 51°20.152 3°1.427 6.9 334 11.7 102480 65
2007-03-12 13:07 51°20.065 3°1.075 7.3 332 11.6 102480 66
2007-03-12 13:08 51°19.98 3°0.722 7.7 331 11.5 102470 68
2007-03-12 13:09 51°19.902 3°0.367 7.8 331 11.5 102470 65
2007-03-12 13:10 51°19.826 3°0.012 7.6 331 11.6 102480 63
2007-03-12 13:11 51°19.751 2°59.652 7.6 331 11.7 102470 63
2007-03-12 13:12 51°19.691 2°59.282 7.6 331 11.7 102480 64
2007-03-12 13:13 51°19.617 2°58.916 8 331 11.7 102470 65
2007-03-12 13:14 51°19.549 2°58.544 7.9 331 11.7 102470 67
2007-03-12 13:15 51°19.465 2°58.177 7.9 331 11.7 102480 67
2007-03-12 13:16 51°19.392 2°57.803 7.8 332 11.7 102470 64
2007-03-12 13:17 51°19.317 2°57.428 7.9 332 11.9 102470 60
2007-03-12 13:18 51°19.218 2°57.066 8.1 331 12.1 102470 60
2007-03-12 13:19 51°19.109 2°56.71 7.9 332 12.3 102470 58
2007-03-12 13:20 51°18.98 2°56.369 7.7 333 12.5 102470 58
2007-03-12 13:21 51°18.838 2°56.041 7.8 332 12.6 102470 58
2007-03-12 13:22 51°18.686 2°55.722 7.7 331 12.7 102470 57
2007-03-12 13:23 51°18.534 2°55.406 7.8 331 12.7 102470 58
2007-03-12 13:24 51°18.383 2°55.091 8.1 332 12.7 102470 57
2007-03-12 13:25 51°18.233 2°54.778 7.8 331 12.7 102470 58
2007-03-12 13:26 51°18.079 2°54.47 7.7 333 12.8 102460 58
2007-03-12 13:27 51°17.888 2°54.221 7.8 333 12.7 102470 58
2007-03-12 13:28 51°17.695 2°53.98 7.1 335 12.7 102470 59
2007-03-12 13:29 51°17.502 2°53.745 6.9 335 12.6 102470 60
2007-03-12 13:30 51°17.311 2°53.511 6.9 334 12.5 102470 63
2007-03-12 13:31 51°17.114 2°53.304 6.9 334 12.3 102470 65
2007-03-12 13:32 51°16.89 2°53.309 6.1 333 12.1 102460 65
2007-03-12 13:33 51°16.665 2°53.432 6.2 333 12 102460 65
2007-03-12 13:34 51°16.432 2°53.541 6.2 334 11.9 102460 65
2007-03-12 13:35 51°16.204 2°53.639 5.7 334 12 102460 64
2007-03-12 13:36 51°15.981 2°53.733 5.6 332 12.1 102460 63
2007-03-12 13:37 51°15.75 2°53.831 5.2 332 12.2 102460 64
2007-03-12 13:38 51°15.528 2°53.939 5.2 331 12.2 102460 64
2007-03-12 13:39 51°15.322 2°54.087 5.3 328 12.2 102450 63
2007-03-12 13:40 51°15.117 2°54.228 4.9 329 12.2 102450 64
2007-03-12 13:41 51°14.932 2°54.36 4.9 328 12.3 102450 62
2007-03-12 13:42 51°14.748 2°54.511 4.8 301 12.4 102450 60
2007-03-12 13:43 51°14.581 2°54.719 4.5 327 12.6 102450 59
2007-03-12 13:44 51°14.429 2°54.954 4.7 324 12.7 102450 58
2007-03-12 13:45 51°14.301 2°55.197 3.2 326 12.8 102450 60
2007-03-12 13:46 51°14.193 2°55.358 2.2 333 12.8 102450 60
2007-03-12 13:47 51°14.084 2°55.443 1.2 341 12.8 102450 61
2007-03-12 13:48 51°13.977 2°55.521 1.4 336 13 102450 60
2007-03-12 13:49 51°13.865 2°55.602 1.7 300 13.1 102450 60
2007-03-12 13:50 51°13.758 2°55.697 1.4 302 13.3 102440 59
2007-03-12 13:51 51°13.677 2°55.833 1.6 306 13.4 102440 58
2007-03-12 13:52 51°13.631 2°55.959 1.4 308 13.6 102440 58
2007-03-12 13:53 51°13.608 2°56.045 1 305 13.8 102440 57
2007-03-12 13:54 51°13.6 2°56.087 0.8 58 14 102440 56
2007-03-12 13:55 51°13.597 2°56.094 1.2 52 14.1 102440 56